createdAt,value
2022-10-21T00:00:10.754Z,9.52
2022-10-21T00:02:40.797Z,9.80
2022-10-21T00:05:08.378Z,9.80
2022-10-21T00:07:35.608Z,10.38
2022-10-21T00:10:03.313Z,10.02
2022-10-21T00:12:30.844Z,10.25
2022-10-21T00:14:58.029Z,10.35
2022-10-21T00:17:25.243Z,10.25
2022-10-21T00:19:52.517Z,10.23
2022-10-21T00:22:19.720Z,10.10
2022-10-21T00:24:46.971Z,10.52
2022-10-21T00:27:15.952Z,10.40
2022-10-21T00:29:44.513Z,11.07
2022-10-21T00:32:11.835Z,9.82
2022-10-21T00:34:39.283Z,9.75
2022-10-21T00:37:06.496Z,9.98
2022-10-21T00:39:33.710Z,10.48
2022-10-21T00:42:00.961Z,9.80
2022-10-21T00:44:28.252Z,9.63
2022-10-21T00:46:58.661Z,10.85
2022-10-21T00:49:25.884Z,10.38
2022-10-21T00:51:54.663Z,9.88
2022-10-21T00:54:22.948Z,10.85
2022-10-21T00:59:19.307Z,9.48
2022-10-21T01:01:46.581Z,9.85
2022-10-21T01:04:13.793Z,10.32
2022-10-21T01:06:41.143Z,9.90
2022-10-21T01:09:08.571Z,9.88
2022-10-21T01:11:42.435Z,10.52
2022-10-21T01:14:12.471Z,10.07
2022-10-21T01:16:48.833Z,9.70
2022-10-21T01:19:34.916Z,10.65
2022-10-21T01:22:30.509Z,10.05
2022-10-21T01:25:00.755Z,9.10
2022-10-21T01:27:38.977Z,10.10
2022-10-21T01:30:29.781Z,9.15
2022-10-21T01:33:04.561Z,9.60
2022-10-21T01:35:41.456Z,9.93
2022-10-21T01:38:14.488Z,9.98
2022-10-21T01:40:55.543Z,9.77
2022-10-21T01:43:30.236Z,9.68
2022-10-21T01:46:00.903Z,9.15
2022-10-21T01:48:36.314Z,9.77
2022-10-21T01:51:06.968Z,9.48
2022-10-21T01:53:39.794Z,9.43
2022-10-21T01:56:08.786Z,9.93
2022-10-21T01:58:37.556Z,9.68
2022-10-21T02:01:06.607Z,9.38
2022-10-21T02:03:36.787Z,9.80
2022-10-21T02:06:04.727Z,9.15
2022-10-21T02:08:32.158Z,9.38
2022-10-21T02:11:01.372Z,9.38
2022-10-21T02:13:34.062Z,10.38
2022-10-21T02:16:04.097Z,9.82
2022-10-21T02:18:31.339Z,10.27
2022-10-21T02:21:07.252Z,9.82
2022-10-21T02:23:40.469Z,10.60
2022-10-21T02:26:07.835Z,9.65
2022-10-21T02:28:35.199Z,9.70
2022-10-21T02:31:02.443Z,9.98
2022-10-21T02:33:55.268Z,9.98
2022-10-21T02:36:28.461Z,9.23
2022-10-21T02:38:58.246Z,10.15
2022-10-21T02:41:26.597Z,9.43
2022-10-21T02:43:57.021Z,9.98
2022-10-21T02:46:24.465Z,9.77
2022-10-21T02:48:51.684Z,9.93
2022-10-21T02:51:18.907Z,10.00
2022-10-21T02:53:46.038Z,10.05
2022-10-21T02:56:13.260Z,9.82
2022-10-21T02:58:40.523Z,9.57
2022-10-21T03:01:07.827Z,10.55
2022-10-21T03:03:35.134Z,9.30
2022-10-21T03:06:02.349Z,9.35
2022-10-21T03:08:29.600Z,9.60
2022-10-21T03:10:56.883Z,9.07
2022-10-21T03:13:24.163Z,9.73
2022-10-21T03:15:51.481Z,9.52
2022-10-21T03:18:19.295Z,10.23
2022-10-21T03:20:50.351Z,9.70
2022-10-21T03:23:18.753Z,9.27
2022-10-21T03:25:46.006Z,9.25
2022-10-21T03:28:13.702Z,10.30
2022-10-21T03:30:40.977Z,9.82
2022-10-21T03:33:08.176Z,9.55
2022-10-21T03:35:35.770Z,9.98
2022-10-21T03:38:03.193Z,9.63
2022-10-21T03:40:30.684Z,10.35
2022-10-21T03:42:58.571Z,9.63
2022-10-21T03:45:26.182Z,9.65
2022-10-21T03:47:53.438Z,9.38
2022-10-21T03:50:26.038Z,9.25
2022-10-21T03:52:54.397Z,10.23
2022-10-21T03:55:24.118Z,9.65
2022-10-21T03:57:51.697Z,9.57
2022-10-21T04:00:19.156Z,9.65
2022-10-21T04:02:46.625Z,9.93
2022-10-21T04:05:14.003Z,9.90
2022-10-21T04:07:41.289Z,9.82
2022-10-21T04:10:08.842Z,9.18
2022-10-21T04:12:36.248Z,9.57
2022-10-21T04:15:04.715Z,9.65
2022-10-21T04:17:32.008Z,9.63
2022-10-21T04:19:59.295Z,9.05
2022-10-21T04:22:26.480Z,8.75
2022-10-21T04:24:53.702Z,9.15
2022-10-21T04:27:20.873Z,9.02
2022-10-21T04:29:48.088Z,9.02
2022-10-21T04:32:15.333Z,8.90
2022-10-21T04:34:42.935Z,9.52
2022-10-21T04:37:10.132Z,9.55
2022-10-21T04:39:37.360Z,9.40
2022-10-21T04:42:04.655Z,9.05
2022-10-21T04:44:31.888Z,8.68
2022-10-21T04:46:59.229Z,8.85
2022-10-21T04:49:26.493Z,9.57
2022-10-21T04:51:53.689Z,9.70
2022-10-21T04:54:20.929Z,9.23
2022-10-21T04:56:48.294Z,9.23
2022-10-21T04:59:15.517Z,8.73
2022-10-21T05:01:42.752Z,9.02
2022-10-21T05:04:10.014Z,10.00
2022-10-21T05:06:37.192Z,8.63
2022-10-21T05:09:04.766Z,8.45
2022-10-21T05:11:31.974Z,8.65
2022-10-21T05:13:59.245Z,8.38
2022-10-21T05:16:26.455Z,8.68
2022-10-21T05:18:53.729Z,8.43
2022-10-21T05:21:21.117Z,8.98
2022-10-21T05:23:48.309Z,8.80
2022-10-21T05:26:15.577Z,8.50
2022-10-21T05:28:42.761Z,8.60
2022-10-21T05:31:10.009Z,8.43
2022-10-21T05:33:37.221Z,7.63
2022-10-21T05:36:07.791Z,7.93
2022-10-21T05:38:35.560Z,10.15
2022-10-21T05:41:02.908Z,8.30
2022-10-21T05:43:30.158Z,8.48
2022-10-21T05:45:57.415Z,8.45
2022-10-21T05:48:24.848Z,8.05
2022-10-21T05:50:53.102Z,8.45
2022-10-21T05:53:20.329Z,7.72
2022-10-21T05:55:56.062Z,8.43
2022-10-21T05:58:24.054Z,7.88
2022-10-21T06:00:54.717Z,8.10
2022-10-21T06:03:29.849Z,7.80
2022-10-21T06:05:57.798Z,7.10
2022-10-21T06:08:25.084Z,7.32
2022-10-21T06:11:04.319Z,7.75
2022-10-21T06:13:31.932Z,8.50
2022-10-21T06:15:59.703Z,7.50
2022-10-21T06:18:27.365Z,7.32
2022-10-21T06:20:54.580Z,7.40
2022-10-21T06:23:21.973Z,6.78
2022-10-21T06:26:02.430Z,7.32
2022-10-21T06:28:31.370Z,6.60
2022-10-21T06:30:58.819Z,7.00
2022-10-21T06:33:27.270Z,7.10
2022-10-21T06:35:55.482Z,6.93
2022-10-21T06:38:23.176Z,6.50
2022-10-21T06:40:50.448Z,6.53
2022-10-21T06:43:17.865Z,6.68
2022-10-21T06:45:45.446Z,7.18
2022-10-21T06:48:13.744Z,6.70
2022-10-21T06:50:41.038Z,6.57
2022-10-21T06:53:08.252Z,7.65
2022-10-21T06:55:35.515Z,6.38
2022-10-21T06:58:02.754Z,6.35
2022-10-21T07:03:02.106Z,6.47
2022-10-21T07:05:29.289Z,7.28
2022-10-21T07:07:56.544Z,6.88
2022-10-21T07:10:23.729Z,6.47
2022-10-21T07:12:51.280Z,6.95
2022-10-21T07:15:18.532Z,6.93
2022-10-21T07:17:45.759Z,6.20
2022-10-21T07:20:13.007Z,6.75
2022-10-21T07:22:40.266Z,6.60
2022-10-21T07:25:08.308Z,6.45
2022-10-21T07:27:35.629Z,6.80
2022-10-21T07:30:02.897Z,7.40
2022-10-21T07:32:30.199Z,6.80
2022-10-21T07:34:57.474Z,6.75
2022-10-21T07:37:24.661Z,6.65
2022-10-21T07:39:52.003Z,6.93
2022-10-21T07:42:19.215Z,7.50
2022-10-21T07:44:46.489Z,7.43
2022-10-21T07:47:13.720Z,7.25
2022-10-21T07:49:40.891Z,6.90
2022-10-21T07:52:08.203Z,6.95
2022-10-21T07:54:35.512Z,7.15
2022-10-21T07:57:02.760Z,7.03
2022-10-21T07:59:29.920Z,7.00
2022-10-21T08:01:57.499Z,7.18
2022-10-21T08:04:29.664Z,6.60
2022-10-21T08:06:57.425Z,6.45
2022-10-21T08:09:26.246Z,7.22
2022-10-21T08:11:53.520Z,6.57
2022-10-21T08:14:20.758Z,6.78
2022-10-21T08:16:51.457Z,6.70
2022-10-21T08:19:20.374Z,6.95
2022-10-21T08:21:47.884Z,6.55
2022-10-21T08:24:15.139Z,6.72
2022-10-21T08:26:42.401Z,6.32
2022-10-21T08:29:09.645Z,6.57
2022-10-21T08:31:36.910Z,6.57
2022-10-21T08:34:04.131Z,6.28
2022-10-21T08:36:31.395Z,6.38
2022-10-21T08:38:58.953Z,5.80
2022-10-21T08:41:43.218Z,6.75
2022-10-21T08:44:37.789Z,6.68
2022-10-21T08:47:45.291Z,6.40
2022-10-21T08:50:18.822Z,6.20
2022-10-21T08:52:48.879Z,5.93
2022-10-21T08:55:34.739Z,6.07
2022-10-21T08:58:02.897Z,6.13
2022-10-21T09:00:56.947Z,5.97
2022-10-21T09:03:27.682Z,6.22
2022-10-21T09:06:20.112Z,6.72
2022-10-21T09:09:00.664Z,6.65
2022-10-21T09:11:52.908Z,6.35
2022-10-21T09:14:31.667Z,6.40
2022-10-21T09:17:31.096Z,5.72
2022-10-21T09:20:06.794Z,5.75
2022-10-21T09:25:18.437Z,6.45
2022-10-21T09:27:58.853Z,6.55
2022-10-21T09:30:26.354Z,6.05
2022-10-21T09:32:59.026Z,6.40
2022-10-21T09:35:37.869Z,6.88
2022-10-21T09:38:11.259Z,6.10
2022-10-21T09:40:38.513Z,6.03
2022-10-21T09:43:13.537Z,5.78
2022-10-21T09:45:43.837Z,5.80
2022-10-21T09:48:19.600Z,6.15
2022-10-21T09:50:56.717Z,5.90
2022-10-21T09:53:53.861Z,5.50
2022-10-21T09:56:24.385Z,5.57
2022-10-21T09:59:07.793Z,5.75
2022-10-21T10:01:36.642Z,5.68
2022-10-21T10:04:24.063Z,6.00
2022-10-21T10:06:51.683Z,6.20
2022-10-21T10:09:28.886Z,5.35
2022-10-21T10:11:56.227Z,5.25
2022-10-21T10:14:55.583Z,5.93
2022-10-21T10:17:29.257Z,5.05
2022-10-21T10:20:07.644Z,5.63
2022-10-21T10:23:04.319Z,5.68
2022-10-21T10:25:32.913Z,5.60
2022-10-21T10:28:25.481Z,5.53
2022-10-21T10:30:57.342Z,5.13
2022-10-21T10:33:25.620Z,5.65
2022-10-21T10:36:03.304Z,5.78
2022-10-21T10:38:36.206Z,5.70
2022-10-21T10:41:04.320Z,5.85
2022-10-21T10:43:33.833Z,5.38
2022-10-21T10:46:02.821Z,6.28
2022-10-21T10:49:04.104Z,5.60
2022-10-21T10:51:35.809Z,5.90
2022-10-21T10:54:03.024Z,5.85
2022-10-21T10:56:37.389Z,5.72
2022-10-21T10:59:21.369Z,5.75
2022-10-21T11:02:10.125Z,5.63
2022-10-21T11:04:46.520Z,6.20
2022-10-21T11:07:35.283Z,5.15
2022-10-21T11:10:13.347Z,5.50
2022-10-21T11:12:40.617Z,5.20
2022-10-21T11:15:16.281Z,5.70
2022-10-21T11:20:28.295Z,5.43
2022-10-21T11:23:19.986Z,4.65
2022-10-21T11:25:54.261Z,5.72
2022-10-21T11:28:32.765Z,5.25
2022-10-21T11:31:43.953Z,4.90
2022-10-21T11:34:39.386Z,4.07
2022-10-21T11:37:19.213Z,3.90
2022-10-21T11:39:55.535Z,4.47
2022-10-21T11:42:49.118Z,3.80
2022-10-21T11:45:33.555Z,3.28
2022-10-21T11:48:06.316Z,3.72
2022-10-21T11:51:06.244Z,2.97
2022-10-21T11:54:06.211Z,3.00
2022-10-21T11:56:59.811Z,2.65
2022-10-21T11:59:35.444Z,2.83
2022-10-21T12:02:17.469Z,2.67
2022-10-21T12:07:40.800Z,2.90
2022-10-21T12:10:30.443Z,2.92
2022-10-21T12:13:20.078Z,2.70
2022-10-21T12:15:49.849Z,2.95
2022-10-21T12:18:22.376Z,3.15
2022-10-21T12:20:51.851Z,2.80
2022-10-21T12:23:20.873Z,3.10
2022-10-21T12:26:02.070Z,2.70
2022-10-21T12:28:29.257Z,2.88
2022-10-21T12:31:16.265Z,2.88
2022-10-21T12:33:45.399Z,3.53
2022-10-21T12:38:53.068Z,2.63
2022-10-21T12:41:22.112Z,3.20
2022-10-21T12:44:01.237Z,3.10
2022-10-21T12:47:01.460Z,2.90
2022-10-21T12:49:33.643Z,3.10
2022-10-21T12:52:20.638Z,3.00
2022-10-21T12:54:47.825Z,3.30
2022-10-21T12:57:27.397Z,2.97
2022-10-21T13:00:14.683Z,3.53
2022-10-21T13:03:05.096Z,3.10
2022-10-21T13:05:37.742Z,3.08
2022-10-21T13:08:51.345Z,2.95
2022-10-21T13:11:38.152Z,3.05
2022-10-21T13:14:35.115Z,3.10
2022-10-21T13:17:22.016Z,3.17
2022-10-21T13:20:12.086Z,2.90
2022-10-21T13:22:41.658Z,3.13
2022-10-21T13:25:28.573Z,3.10
2022-10-21T13:28:03.784Z,3.13
2022-10-21T13:30:38.856Z,3.15
2022-10-21T13:33:15.003Z,2.97
2022-10-21T13:35:42.386Z,3.20
2022-10-21T13:38:19.819Z,3.05
2022-10-21T13:40:48.968Z,3.15
2022-10-21T13:46:19.795Z,3.78
2022-10-21T13:48:48.570Z,3.28
2022-10-21T13:51:27.054Z,3.40
2022-10-21T13:53:59.892Z,3.47
2022-10-21T13:56:30.595Z,3.20
2022-10-21T13:58:58.183Z,3.08
2022-10-21T14:01:26.895Z,3.53
2022-10-21T14:03:54.720Z,2.88
2022-10-21T14:06:32.008Z,3.10
2022-10-21T14:09:01.268Z,3.20
2022-10-21T14:11:34.773Z,3.65
2022-10-21T14:14:07.829Z,2.70
2022-10-21T14:16:47.264Z,3.20
2022-10-21T14:19:22.377Z,3.20
2022-10-21T14:21:52.490Z,3.20
2022-10-21T14:24:47.892Z,3.50
2022-10-21T14:27:20.391Z,3.08
2022-10-21T14:29:47.892Z,3.25
2022-10-21T14:32:17.605Z,3.55
2022-10-21T14:34:59.885Z,3.10
2022-10-21T14:37:27.499Z,3.30
2022-10-21T14:39:54.755Z,3.10
2022-10-21T14:42:24.540Z,3.42
2022-10-21T14:44:58.994Z,2.83
2022-10-21T14:47:27.309Z,3.40
2022-10-21T14:49:59.733Z,3.10
2022-10-21T14:52:42.851Z,3.17
2022-10-21T14:55:14.287Z,3.00
2022-10-21T14:57:51.261Z,3.10
2022-10-21T15:00:29.012Z,3.10
2022-10-21T15:02:58.780Z,2.90
2022-10-21T15:05:31.698Z,2.55
2022-10-21T15:08:20.513Z,2.60
2022-10-21T15:11:05.482Z,3.15
2022-10-21T15:13:33.354Z,2.90
2022-10-21T15:16:02.698Z,2.70
2022-10-21T15:18:29.895Z,3.03
2022-10-21T15:21:09.631Z,2.60
2022-10-21T15:23:36.822Z,2.60
2022-10-21T15:26:13.411Z,2.20
2022-10-21T15:28:41.760Z,2.40
2022-10-21T15:31:16.041Z,2.50
2022-10-21T15:33:43.265Z,2.95
2022-10-21T15:36:14.351Z,2.75
2022-10-21T15:38:46.712Z,2.58
2022-10-21T15:41:16.143Z,2.72
2022-10-21T15:43:45.066Z,2.42
2022-10-21T15:46:12.542Z,2.28
2022-10-21T15:48:39.779Z,2.30
2022-10-21T15:51:07.001Z,3.40
2022-10-21T15:53:34.251Z,3.33
2022-10-21T15:56:01.682Z,3.28
2022-10-21T15:58:29.252Z,3.42
2022-10-21T16:00:56.467Z,2.80
2022-10-21T16:03:23.719Z,2.72
2022-10-21T16:05:51.459Z,2.88
2022-10-21T16:08:18.744Z,2.60
2022-10-21T16:10:47.858Z,2.58
2022-10-21T16:15:42.280Z,2.42
2022-10-21T16:18:14.718Z,2.40
2022-10-21T16:20:42.764Z,3.40
2022-10-21T16:23:11.005Z,3.20
2022-10-21T16:25:38.218Z,2.80
2022-10-21T16:28:05.671Z,2.80
2022-10-21T16:30:39.117Z,3.03
2022-10-21T16:33:06.572Z,2.75
2022-10-21T16:35:33.825Z,2.65
2022-10-21T16:38:01.058Z,2.72
2022-10-21T16:40:35.397Z,2.65
2022-10-21T16:43:02.664Z,2.60
2022-10-21T16:45:32.347Z,2.80
2022-10-21T16:48:01.038Z,2.53
2022-10-21T16:50:39.665Z,2.50
2022-10-21T16:53:15.123Z,2.60
2022-10-21T16:55:42.398Z,2.60
2022-10-21T16:58:09.755Z,2.30
2022-10-21T17:00:37.026Z,2.63
2022-10-21T17:03:04.681Z,2.50
2022-10-21T17:05:32.057Z,2.20
2022-10-21T17:07:59.958Z,2.30
2022-10-21T17:10:27.492Z,2.70
2022-10-21T17:12:58.939Z,2.50
2022-10-21T17:15:27.452Z,2.40
2022-10-21T17:17:54.714Z,2.30
2022-10-21T17:20:21.989Z,2.95
2022-10-21T17:22:49.298Z,2.75
2022-10-21T17:25:17.422Z,3.20
2022-10-21T17:27:44.641Z,3.50
2022-10-21T17:30:12.339Z,3.13
2022-10-21T17:32:39.613Z,3.63
2022-10-21T17:35:07.030Z,3.80
2022-10-21T17:37:34.298Z,3.42
2022-10-21T17:40:01.621Z,3.63
2022-10-21T17:42:28.848Z,3.80
2022-10-21T17:44:57.213Z,3.60
2022-10-21T17:47:24.550Z,4.07
2022-10-21T17:49:51.775Z,4.05
2022-10-21T17:52:19.003Z,4.38
2022-10-21T17:54:46.353Z,4.75
2022-10-21T17:57:13.862Z,4.43
2022-10-21T17:59:41.056Z,5.07
2022-10-21T18:02:08.983Z,5.13
2022-10-21T18:04:36.187Z,5.78
2022-10-21T18:07:07.222Z,5.75
2022-10-21T18:09:36.932Z,5.07
2022-10-21T18:12:07.107Z,5.85
2022-10-21T18:14:34.352Z,5.75
2022-10-21T18:17:01.645Z,5.78
2022-10-21T18:19:28.920Z,5.70
2022-10-21T18:21:56.117Z,6.07
2022-10-21T18:24:23.329Z,5.22
2022-10-21T18:26:50.553Z,5.57
2022-10-21T18:29:18.550Z,4.95
2022-10-21T18:31:45.860Z,4.70
2022-10-21T18:34:13.347Z,4.63
2022-10-21T18:36:42.212Z,4.72
2022-10-21T18:39:09.813Z,5.03
2022-10-21T18:41:38.568Z,5.13
2022-10-21T18:44:08.415Z,5.45
2022-10-21T18:46:39.324Z,5.10
2022-10-21T18:49:08.945Z,5.30
2022-10-21T18:51:36.220Z,4.82
2022-10-21T18:54:03.407Z,5.32
2022-10-21T18:56:30.936Z,5.15
2022-10-21T18:58:58.180Z,5.55
2022-10-21T19:01:26.485Z,4.95
2022-10-21T19:03:55.222Z,4.82
2022-10-21T19:06:57.555Z,4.85
2022-10-21T19:09:25.911Z,4.82
2022-10-21T19:11:53.457Z,4.82
2022-10-21T19:14:20.879Z,5.03
2022-10-21T19:16:48.914Z,5.15
2022-10-21T19:19:16.366Z,4.85
2022-10-21T19:21:43.617Z,4.97
2022-10-21T19:24:10.903Z,4.75
2022-10-21T19:26:40.348Z,5.20
2022-10-21T19:29:13.465Z,5.03
2022-10-21T19:31:41.947Z,4.93
2022-10-21T19:34:18.421Z,4.63
2022-10-21T19:36:45.849Z,5.20
2022-10-21T19:39:13.261Z,4.55
2022-10-21T19:41:40.578Z,4.55
2022-10-21T19:44:07.854Z,4.70
2022-10-21T19:46:35.498Z,4.82
2022-10-21T19:49:03.326Z,5.05
2022-10-21T19:51:30.588Z,5.03
2022-10-21T19:53:57.971Z,4.75
2022-10-21T19:56:29.674Z,5.45
2022-10-21T19:58:59.817Z,4.90
2022-10-21T20:01:27.262Z,4.97
2022-10-21T20:03:55.227Z,5.00
2022-10-21T20:06:24.992Z,4.47
2022-10-21T20:08:54.625Z,5.05
2022-10-21T20:11:22.265Z,5.38
2022-10-21T20:13:50.181Z,5.38
2022-10-21T20:16:20.493Z,4.93
2022-10-21T20:18:47.980Z,4.78
2022-10-21T20:21:15.213Z,5.72
2022-10-21T20:23:42.485Z,4.88
2022-10-21T20:26:09.773Z,4.95
2022-10-21T20:28:37.340Z,5.47
2022-10-21T20:31:15.487Z,4.95
2022-10-21T20:33:44.714Z,5.22
2022-10-21T20:36:15.147Z,5.05
2022-10-21T20:38:42.597Z,5.38
2022-10-21T20:41:13.226Z,4.40
2022-10-21T20:43:41.229Z,4.47
2022-10-21T20:46:10.826Z,5.00
2022-10-21T20:48:44.909Z,4.53
2022-10-21T20:51:14.959Z,4.70
2022-10-21T20:53:49.703Z,4.53
2022-10-21T20:56:17.253Z,4.40
2022-10-21T20:58:44.682Z,4.38
2022-10-21T21:01:18.623Z,4.30
2022-10-21T21:03:48.762Z,4.00
2022-10-21T21:06:16.025Z,4.38
2022-10-21T21:08:49.122Z,4.70
2022-10-21T21:11:25.852Z,4.25
2022-10-21T21:13:53.030Z,4.63
2022-10-21T21:16:22.165Z,4.45
2022-10-21T21:21:21.944Z,4.15
2022-10-21T21:23:49.305Z,3.95
2022-10-21T21:26:18.714Z,3.70
2022-10-21T21:28:46.366Z,4.20
2022-10-21T21:31:15.173Z,3.50
2022-10-21T21:33:42.975Z,3.92
2022-10-21T21:36:10.617Z,3.67
2022-10-21T21:38:37.987Z,3.70
2022-10-21T21:41:08.124Z,3.50
2022-10-21T21:43:38.357Z,3.45
2022-10-21T21:46:05.791Z,3.75
2022-10-21T21:48:33.451Z,3.60
2022-10-21T21:51:06.078Z,3.78
2022-10-21T21:53:33.342Z,3.75
2022-10-21T21:56:05.338Z,3.97
2022-10-21T21:58:32.652Z,3.92
2022-10-21T22:01:10.233Z,3.20
2022-10-21T22:03:37.925Z,3.72
2022-10-21T22:06:05.610Z,3.72
2022-10-21T22:08:33.748Z,3.78
2022-10-21T22:11:14.954Z,3.90
2022-10-21T22:13:42.221Z,3.40
2022-10-21T22:16:10.961Z,3.50
2022-10-21T22:18:38.447Z,3.50
2022-10-21T22:21:08.168Z,3.17
2022-10-21T22:23:36.534Z,3.25
2022-10-21T22:26:03.750Z,3.53
2022-10-21T22:28:30.994Z,3.20
2022-10-21T22:31:01.955Z,3.10
2022-10-21T22:33:29.620Z,2.97
2022-10-21T22:35:56.955Z,3.45
2022-10-21T22:38:24.817Z,3.30
2022-10-21T22:40:55.698Z,3.60
2022-10-21T22:43:23.156Z,3.10
2022-10-21T22:45:50.340Z,3.70
2022-10-21T22:48:17.728Z,3.05
2022-10-21T22:50:45.296Z,3.10
2022-10-21T22:53:13.137Z,3.17
2022-10-21T22:55:40.374Z,3.00
2022-10-21T22:58:07.648Z,3.38
2022-10-21T23:00:34.878Z,2.90
2022-10-21T23:03:04.026Z,2.95
2022-10-21T23:05:33.465Z,2.75
2022-10-21T23:08:00.637Z,3.20
2022-10-21T23:10:27.868Z,2.75
2022-10-21T23:12:55.065Z,2.85
2022-10-21T23:15:22.328Z,3.20
2022-10-21T23:17:49.539Z,3.25
2022-10-21T23:20:16.829Z,3.03
2022-10-21T23:22:44.072Z,3.15
2022-10-21T23:25:11.441Z,2.97
2022-10-21T23:27:38.647Z,3.33
2022-10-21T23:30:05.925Z,3.10
2022-10-21T23:32:33.128Z,3.22
2022-10-21T23:35:00.328Z,3.00
2022-10-21T23:37:27.564Z,3.08
2022-10-21T23:39:54.781Z,3.05
2022-10-21T23:42:22.025Z,2.97
2022-10-21T23:44:49.231Z,3.10
2022-10-21T23:47:16.522Z,3.10
2022-10-21T23:49:43.796Z,3.10
2022-10-21T23:52:11.052Z,3.20
2022-10-21T23:54:38.565Z,2.97
2022-10-21T23:57:05.789Z,2.88
2022-10-21T23:59:34.316Z,3.72
